sensor_id;sensor_type;location;lat;lon;timestamp;P1;durP1;ratioP1;P2;durP2;ratioP2
20945;SDS011;10632;51.276;7.116;2023-08-08T00:00:42;2.38;;;0.90;;
20945;SDS011;10632;51.276;7.116;2023-08-08T00:03:09;2.20;;;1.10;;
20945;SDS011;10632;51.276;7.116;2023-08-08T00:05:36;3.85;;;1.10;;
20945;SDS011;10632;51.276;7.116;2023-08-08T00:08:03;1.98;;;0.68;;
20945;SDS011;10632;51.276;7.116;2023-08-08T00:10:30;1.77;;;0.85;;
20945;SDS011;10632;51.276;7.116;2023-08-08T00:12:57;3.15;;;0.80;;
20945;SDS011;10632;51.276;7.116;2023-08-08T00:15:35;2.80;;;1.05;;
20945;SDS011;10632;51.276;7.116;2023-08-08T00:18:04;1.92;;;0.80;;
20945;SDS011;10632;51.276;7.116;2023-08-08T00:20:31;3.60;;;1.10;;
20945;SDS011;10632;51.276;7.116;2023-08-08T00:23:01;2.50;;;1.02;;
20945;SDS011;10632;51.276;7.116;2023-08-08T00:25:27;3.00;;;1.20;;
20945;SDS011;10632;51.276;7.116;2023-08-08T00:27:54;2.13;;;0.82;;
20945;SDS011;10632;51.276;7.116;2023-08-08T00:30:21;4.20;;;1.00;;
20945;SDS011;10632;51.276;7.116;2023-08-08T00:32:48;2.45;;;0.90;;
20945;SDS011;10632;51.276;7.116;2023-08-08T00:35:16;2.15;;;0.95;;
20945;SDS011;10632;51.276;7.116;2023-08-08T00:37:43;1.80;;;0.80;;
20945;SDS011;10632;51.276;7.116;2023-08-08T00:40:10;2.95;;;1.13;;
20945;SDS011;10632;51.276;7.116;2023-08-08T00:42:37;3.05;;;0.90;;
20945;SDS011;10632;51.276;7.116;2023-08-08T00:45:04;3.78;;;1.10;;
20945;SDS011;10632;51.276;7.116;2023-08-08T00:47:32;1.60;;;0.73;;
20945;SDS011;10632;51.276;7.116;2023-08-08T00:50:00;2.78;;;1.05;;
20945;SDS011;10632;51.276;7.116;2023-08-08T00:52:29;5.85;;;1.00;;
20945;SDS011;10632;51.276;7.116;2023-08-08T00:54:57;2.03;;;0.90;;
20945;SDS011;10632;51.276;7.116;2023-08-08T00:57:24;1.85;;;0.90;;
20945;SDS011;10632;51.276;7.116;2023-08-08T00:59:51;3.22;;;0.80;;
20945;SDS011;10632;51.276;7.116;2023-08-08T01:02:18;1.40;;;0.70;;
20945;SDS011;10632;51.276;7.116;2023-08-08T01:04:45;1.88;;;0.82;;
20945;SDS011;10632;51.276;7.116;2023-08-08T01:07:15;8.88;;;1.23;;
20945;SDS011;10632;51.276;7.116;2023-08-08T01:09:50;1.92;;;0.90;;
20945;SDS011;10632;51.276;7.116;2023-08-08T01:12:21;2.65;;;1.00;;
20945;SDS011;10632;51.276;7.116;2023-08-08T01:14:49;1.92;;;0.90;;
20945;SDS011;10632;51.276;7.116;2023-08-08T01:17:16;2.55;;;1.08;;
20945;SDS011;10632;51.276;7.116;2023-08-08T01:19:44;2.88;;;1.10;;
20945;SDS011;10632;51.276;7.116;2023-08-08T01:22:14;3.05;;;1.15;;
20945;SDS011;10632;51.276;7.116;2023-08-08T01:24:50;2.83;;;1.00;;
20945;SDS011;10632;51.276;7.116;2023-08-08T01:27:19;4.10;;;1.33;;
20945;SDS011;10632;51.276;7.116;2023-08-08T01:29:46;2.17;;;0.93;;
20945;SDS011;10632;51.276;7.116;2023-08-08T01:32:13;4.57;;;1.00;;
20945;SDS011;10632;51.276;7.116;2023-08-08T01:34:40;3.15;;;1.10;;
20945;SDS011;10632;51.276;7.116;2023-08-08T01:37:08;2.67;;;1.02;;
20945;SDS011;10632;51.276;7.116;2023-08-08T01:39:39;3.30;;;1.23;;
20945;SDS011;10632;51.276;7.116;2023-08-08T01:42:09;2.50;;;0.90;;
20945;SDS011;10632;51.276;7.116;2023-08-08T01:44:41;2.85;;;1.23;;
20945;SDS011;10632;51.276;7.116;2023-08-08T01:47:10;2.88;;;1.13;;
20945;SDS011;10632;51.276;7.116;2023-08-08T01:49:39;3.35;;;1.30;;
20945;SDS011;10632;51.276;7.116;2023-08-08T01:52:13;2.38;;;1.00;;
20945;SDS011;10632;51.276;7.116;2023-08-08T01:54:40;2.17;;;1.15;;
20945;SDS011;10632;51.276;7.116;2023-08-08T01:57:19;4.90;;;1.15;;
20945;SDS011;10632;51.276;7.116;2023-08-08T01:59:49;3.15;;;1.17;;
20945;SDS011;10632;51.276;7.116;2023-08-08T02:02:16;4.82;;;1.08;;
20945;SDS011;10632;51.276;7.116;2023-08-08T02:04:43;2.22;;;1.10;;
20945;SDS011;10632;51.276;7.116;2023-08-08T02:07:10;5.35;;;1.00;;
20945;SDS011;10632;51.276;7.116;2023-08-08T02:09:37;4.50;;;1.10;;
20945;SDS011;10632;51.276;7.116;2023-08-08T02:12:04;2.95;;;1.00;;
20945;SDS011;10632;51.276;7.116;2023-08-08T02:14:33;3.60;;;1.02;;
20945;SDS011;10632;51.276;7.116;2023-08-08T02:17:03;2.28;;;0.93;;
20945;SDS011;10632;51.276;7.116;2023-08-08T02:19:30;2.90;;;1.20;;
20945;SDS011;10632;51.276;7.116;2023-08-08T02:21:57;3.35;;;1.20;;
20945;SDS011;10632;51.276;7.116;2023-08-08T02:24:24;2.42;;;1.10;;
20945;SDS011;10632;51.276;7.116;2023-08-08T02:26:54;2.65;;;1.02;;
20945;SDS011;10632;51.276;7.116;2023-08-08T02:29:25;1.48;;;0.73;;
20945;SDS011;10632;51.276;7.116;2023-08-08T02:31:53;2.35;;;0.85;;
20945;SDS011;10632;51.276;7.116;2023-08-08T02:34:20;3.35;;;1.30;;
20945;SDS011;10632;51.276;7.116;2023-08-08T02:36:47;5.43;;;1.30;;
20945;SDS011;10632;51.276;7.116;2023-08-08T02:39:17;2.47;;;1.00;;
20945;SDS011;10632;51.276;7.116;2023-08-08T02:41:44;4.93;;;1.20;;
20945;SDS011;10632;51.276;7.116;2023-08-08T02:44:13;4.00;;;1.20;;
20945;SDS011;10632;51.276;7.116;2023-08-08T02:46:44;2.40;;;1.05;;
20945;SDS011;10632;51.276;7.116;2023-08-08T02:49:22;3.83;;;1.15;;
20945;SDS011;10632;51.276;7.116;2023-08-08T02:51:48;2.10;;;1.00;;
20945;SDS011;10632;51.276;7.116;2023-08-08T02:54:18;4.13;;;1.25;;
20945;SDS011;10632;51.276;7.116;2023-08-08T02:56:45;6.55;;;1.05;;
20945;SDS011;10632;51.276;7.116;2023-08-08T02:59:12;5.50;;;1.20;;
20945;SDS011;10632;51.276;7.116;2023-08-08T03:01:39;4.80;;;1.23;;
20945;SDS011;10632;51.276;7.116;2023-08-08T03:04:06;5.20;;;1.00;;
20945;SDS011;10632;51.276;7.116;2023-08-08T03:06:34;3.03;;;1.30;;
20945;SDS011;10632;51.276;7.116;2023-08-08T03:09:06;2.28;;;0.82;;
20945;SDS011;10632;51.276;7.116;2023-08-08T03:11:33;4.80;;;0.98;;
20945;SDS011;10632;51.276;7.116;2023-08-08T03:14:02;3.70;;;1.10;;
20945;SDS011;10632;51.276;7.116;2023-08-08T03:16:29;2.45;;;1.02;;
20945;SDS011;10632;51.276;7.116;2023-08-08T03:18:56;5.50;;;1.45;;
20945;SDS011;10632;51.276;7.116;2023-08-08T03:21:23;5.40;;;1.10;;
20945;SDS011;10632;51.276;7.116;2023-08-08T03:24:06;2.38;;;0.90;;
20945;SDS011;10632;51.276;7.116;2023-08-08T03:26:33;2.42;;;1.00;;
20945;SDS011;10632;51.276;7.116;2023-08-08T03:29:00;3.28;;;1.08;;
20945;SDS011;10632;51.276;7.116;2023-08-08T03:31:27;5.82;;;1.35;;
20945;SDS011;10632;51.276;7.116;2023-08-08T03:33:54;4.38;;;1.13;;
20945;SDS011;10632;51.276;7.116;2023-08-08T03:36:21;2.92;;;0.93;;
20945;SDS011;10632;51.276;7.116;2023-08-08T03:38:47;3.63;;;1.30;;
20945;SDS011;10632;51.276;7.116;2023-08-08T03:41:16;3.90;;;1.20;;
20945;SDS011;10632;51.276;7.116;2023-08-08T03:43:43;2.17;;;1.08;;
20945;SDS011;10632;51.276;7.116;2023-08-08T03:46:10;4.85;;;1.20;;
20945;SDS011;10632;51.276;7.116;2023-08-08T03:48:37;3.45;;;1.30;;
20945;SDS011;10632;51.276;7.116;2023-08-08T03:51:04;5.00;;;1.50;;
20945;SDS011;10632;51.276;7.116;2023-08-08T03:53:31;7.32;;;1.17;;
20945;SDS011;10632;51.276;7.116;2023-08-08T03:55:59;2.72;;;1.00;;
20945;SDS011;10632;51.276;7.116;2023-08-08T03:58:27;2.13;;;0.93;;
20945;SDS011;10632;51.276;7.116;2023-08-08T04:00:54;3.38;;;1.50;;
20945;SDS011;10632;51.276;7.116;2023-08-08T04:03:21;4.82;;;1.50;;
20945;SDS011;10632;51.276;7.116;2023-08-08T04:05:48;2.25;;;1.00;;
20945;SDS011;10632;51.276;7.116;2023-08-08T04:08:15;3.60;;;1.10;;
20945;SDS011;10632;51.276;7.116;2023-08-08T04:10:43;3.92;;;1.20;;
20945;SDS011;10632;51.276;7.116;2023-08-08T04:13:12;3.00;;;1.30;;
20945;SDS011;10632;51.276;7.116;2023-08-08T04:15:40;3.35;;;1.10;;
20945;SDS011;10632;51.276;7.116;2023-08-08T04:18:07;6.03;;;1.30;;
20945;SDS011;10632;51.276;7.116;2023-08-08T04:20:34;5.20;;;1.17;;
20945;SDS011;10632;51.276;7.116;2023-08-08T04:23:01;5.50;;;1.38;;
20945;SDS011;10632;51.276;7.116;2023-08-08T04:25:28;3.72;;;1.05;;
20945;SDS011;10632;51.276;7.116;2023-08-08T04:27:56;3.80;;;1.30;;
20945;SDS011;10632;51.276;7.116;2023-08-08T04:30:23;4.70;;;1.45;;
20945;SDS011;10632;51.276;7.116;2023-08-08T04:32:51;6.75;;;1.48;;
20945;SDS011;10632;51.276;7.116;2023-08-08T04:35:18;4.43;;;1.45;;
20945;SDS011;10632;51.276;7.116;2023-08-08T04:37:45;6.45;;;1.55;;
20945;SDS011;10632;51.276;7.116;2023-08-08T04:40:12;4.53;;;1.45;;
20945;SDS011;10632;51.276;7.116;2023-08-08T04:42:39;3.97;;;1.60;;
20945;SDS011;10632;51.276;7.116;2023-08-08T04:45:07;3.97;;;1.38;;
20945;SDS011;10632;51.276;7.116;2023-08-08T04:47:34;9.63;;;1.77;;
20945;SDS011;10632;51.276;7.116;2023-08-08T04:50:03;4.75;;;1.45;;
20945;SDS011;10632;51.276;7.116;2023-08-08T04:52:30;7.07;;;1.70;;
20945;SDS011;10632;51.276;7.116;2023-08-08T04:54:57;5.55;;;1.60;;
20945;SDS011;10632;51.276;7.116;2023-08-08T04:57:24;6.47;;;1.70;;
20945;SDS011;10632;51.276;7.116;2023-08-08T04:59:51;5.18;;;1.75;;
20945;SDS011;10632;51.276;7.116;2023-08-08T05:02:18;5.22;;;2.05;;
20945;SDS011;10632;51.276;7.116;2023-08-08T05:04:45;6.22;;;2.08;;
20945;SDS011;10632;51.276;7.116;2023-08-08T05:07:13;5.55;;;1.67;;
20945;SDS011;10632;51.276;7.116;2023-08-08T05:09:40;16.02;;;2.15;;
20945;SDS011;10632;51.276;7.116;2023-08-08T05:12:07;7.82;;;1.98;;
20945;SDS011;10632;51.276;7.116;2023-08-08T05:14:34;5.43;;;1.67;;
20945;SDS011;10632;51.276;7.116;2023-08-08T05:17:02;12.55;;;2.25;;
20945;SDS011;10632;51.276;7.116;2023-08-08T05:19:29;7.63;;;2.38;;
20945;SDS011;10632;51.276;7.116;2023-08-08T05:21:56;7.22;;;2.15;;
20945;SDS011;10632;51.276;7.116;2023-08-08T05:24:24;9.55;;;2.00;;
20945;SDS011;10632;51.276;7.116;2023-08-08T05:26:51;5.20;;;1.88;;
20945;SDS011;10632;51.276;7.116;2023-08-08T05:29:18;12.40;;;2.67;;
20945;SDS011;10632;51.276;7.116;2023-08-08T05:31:45;4.68;;;1.90;;
20945;SDS011;10632;51.276;7.116;2023-08-08T05:34:13;6.25;;;2.47;;
20945;SDS011;10632;51.276;7.116;2023-08-08T05:36:40;13.27;;;3.08;;
20945;SDS011;10632;51.276;7.116;2023-08-08T05:39:07;4.72;;;1.92;;
20945;SDS011;10632;51.276;7.116;2023-08-08T05:41:36;9.98;;;2.38;;
20945;SDS011;10632;51.276;7.116;2023-08-08T05:44:03;9.73;;;2.60;;
20945;SDS011;10632;51.276;7.116;2023-08-08T05:46:30;8.48;;;2.38;;
20945;SDS011;10632;51.276;7.116;2023-08-08T05:48:57;7.50;;;2.42;;
20945;SDS011;10632;51.276;7.116;2023-08-08T05:51:24;8.73;;;2.50;;
20945;SDS011;10632;51.276;7.116;2023-08-08T05:53:51;13.35;;;3.20;;
20945;SDS011;10632;51.276;7.116;2023-08-08T05:56:18;7.97;;;2.88;;
20945;SDS011;10632;51.276;7.116;2023-08-08T05:58:50;7.18;;;2.58;;
20945;SDS011;10632;51.276;7.116;2023-08-08T06:01:17;5.95;;;2.83;;
20945;SDS011;10632;51.276;7.116;2023-08-08T06:03:44;5.63;;;2.58;;
20945;SDS011;10632;51.276;7.116;2023-08-08T06:06:11;7.22;;;2.65;;
20945;SDS011;10632;51.276;7.116;2023-08-08T06:08:38;8.75;;;2.80;;
20945;SDS011;10632;51.276;7.116;2023-08-08T06:11:05;7.78;;;2.63;;
20945;SDS011;10632;51.276;7.116;2023-08-08T06:13:32;9.55;;;2.90;;
20945;SDS011;10632;51.276;7.116;2023-08-08T06:16:00;8.95;;;2.63;;
20945;SDS011;10632;51.276;7.116;2023-08-08T06:18:31;6.45;;;2.53;;
20945;SDS011;10632;51.276;7.116;2023-08-08T06:20:58;9.13;;;2.55;;
20945;SDS011;10632;51.276;7.116;2023-08-08T06:23:25;10.38;;;3.10;;
20945;SDS011;10632;51.276;7.116;2023-08-08T06:25:52;9.10;;;2.80;;
20945;SDS011;10632;51.276;7.116;2023-08-08T06:28:19;8.98;;;2.80;;
20945;SDS011;10632;51.276;7.116;2023-08-08T06:30:46;10.93;;;2.63;;
20945;SDS011;10632;51.276;7.116;2023-08-08T06:33:14;8.52;;;3.05;;
20945;SDS011;10632;51.276;7.116;2023-08-08T06:35:41;13.98;;;3.22;;
20945;SDS011;10632;51.276;7.116;2023-08-08T06:38:08;12.82;;;2.72;;
20945;SDS011;10632;51.276;7.116;2023-08-08T06:40:35;8.35;;;2.80;;
20945;SDS011;10632;51.276;7.116;2023-08-08T06:43:03;8.23;;;2.63;;
20945;SDS011;10632;51.276;7.116;2023-08-08T06:45:33;6.78;;;2.63;;
20945;SDS011;10632;51.276;7.116;2023-08-08T06:48:00;4.80;;;2.13;;
20945;SDS011;10632;51.276;7.116;2023-08-08T06:50:29;7.28;;;2.70;;
20945;SDS011;10632;51.276;7.116;2023-08-08T06:52:55;13.43;;;3.08;;
20945;SDS011;10632;51.276;7.116;2023-08-08T06:55:22;9.23;;;3.25;;
20945;SDS011;10632;51.276;7.116;2023-08-08T06:57:49;7.50;;;2.95;;
20945;SDS011;10632;51.276;7.116;2023-08-08T07:00:17;10.23;;;3.03;;
20945;SDS011;10632;51.276;7.116;2023-08-08T07:02:44;8.55;;;2.83;;
20945;SDS011;10632;51.276;7.116;2023-08-08T07:05:11;6.95;;;2.78;;
20945;SDS011;10632;51.276;7.116;2023-08-08T07:07:40;10.02;;;2.83;;
20945;SDS011;10632;51.276;7.116;2023-08-08T07:10:07;15.07;;;3.17;;
20945;SDS011;10632;51.276;7.116;2023-08-08T07:12:34;7.03;;;3.00;;
20945;SDS011;10632;51.276;7.116;2023-08-08T07:15:01;9.43;;;3.53;;
20945;SDS011;10632;51.276;7.116;2023-08-08T07:17:28;8.88;;;3.13;;
20945;SDS011;10632;51.276;7.116;2023-08-08T07:19:55;9.98;;;3.28;;
20945;SDS011;10632;51.276;7.116;2023-08-08T07:22:23;10.25;;;3.53;;
20945;SDS011;10632;51.276;7.116;2023-08-08T07:24:51;6.65;;;2.72;;
20945;SDS011;10632;51.276;7.116;2023-08-08T07:27:18;7.30;;;2.55;;
20945;SDS011;10632;51.276;7.116;2023-08-08T07:29:45;8.60;;;2.78;;
20945;SDS011;10632;51.276;7.116;2023-08-08T07:32:12;8.00;;;2.90;;
20945;SDS011;10632;51.276;7.116;2023-08-08T07:34:39;14.57;;;2.63;;
20945;SDS011;10632;51.276;7.116;2023-08-08T07:37:06;12.02;;;3.25;;
20945;SDS011;10632;51.276;7.116;2023-08-08T07:39:33;11.95;;;3.25;;
20945;SDS011;10632;51.276;7.116;2023-08-08T07:42:01;8.95;;;2.80;;
20945;SDS011;10632;51.276;7.116;2023-08-08T07:44:28;12.38;;;3.20;;
20945;SDS011;10632;51.276;7.116;2023-08-08T07:46:59;10.93;;;2.78;;
20945;SDS011;10632;51.276;7.116;2023-08-08T07:49:26;9.80;;;3.00;;
20945;SDS011;10632;51.276;7.116;2023-08-08T07:51:53;13.07;;;3.05;;
20945;SDS011;10632;51.276;7.116;2023-08-08T07:54:23;8.35;;;2.55;;
20945;SDS011;10632;51.276;7.116;2023-08-08T07:56:50;10.27;;;3.03;;
20945;SDS011;10632;51.276;7.116;2023-08-08T07:59:18;13.00;;;3.50;;
20945;SDS011;10632;51.276;7.116;2023-08-08T08:01:45;9.00;;;2.90;;
20945;SDS011;10632;51.276;7.116;2023-08-08T08:04:13;9.82;;;2.65;;
20945;SDS011;10632;51.276;7.116;2023-08-08T08:06:40;13.13;;;2.70;;
20945;SDS011;10632;51.276;7.116;2023-08-08T08:09:08;11.90;;;3.05;;
20945;SDS011;10632;51.276;7.116;2023-08-08T08:11:35;9.70;;;3.10;;
20945;SDS011;10632;51.276;7.116;2023-08-08T08:14:05;9.27;;;3.33;;
20945;SDS011;10632;51.276;7.116;2023-08-08T08:16:33;8.43;;;2.90;;
20945;SDS011;10632;51.276;7.116;2023-08-08T08:19:00;18.40;;;3.58;;
20945;SDS011;10632;51.276;7.116;2023-08-08T08:21:27;13.52;;;2.95;;
20945;SDS011;10632;51.276;7.116;2023-08-08T08:23:54;11.85;;;3.10;;
20945;SDS011;10632;51.276;7.116;2023-08-08T08:26:21;7.80;;;2.90;;
20945;SDS011;10632;51.276;7.116;2023-08-08T08:28:48;6.97;;;2.75;;
20945;SDS011;10632;51.276;7.116;2023-08-08T08:31:15;11.00;;;2.83;;
20945;SDS011;10632;51.276;7.116;2023-08-08T08:33:43;9.18;;;3.05;;
20945;SDS011;10632;51.276;7.116;2023-08-08T08:36:10;15.98;;;3.08;;
20945;SDS011;10632;51.276;7.116;2023-08-08T08:38:37;9.43;;;2.67;;
20945;SDS011;10632;51.276;7.116;2023-08-08T08:41:04;6.57;;;2.35;;
20945;SDS011;10632;51.276;7.116;2023-08-08T08:43:31;10.57;;;2.40;;
20945;SDS011;10632;51.276;7.116;2023-08-08T08:45:59;8.32;;;2.45;;
20945;SDS011;10632;51.276;7.116;2023-08-08T08:48:41;8.02;;;2.70;;
20945;SDS011;10632;51.276;7.116;2023-08-08T08:51:09;5.55;;;2.50;;
20945;SDS011;10632;51.276;7.116;2023-08-08T08:53:36;10.00;;;2.28;;
20945;SDS011;10632;51.276;7.116;2023-08-08T08:56:04;7.13;;;2.50;;
20945;SDS011;10632;51.276;7.116;2023-08-08T08:58:31;13.63;;;2.70;;
20945;SDS011;10632;51.276;7.116;2023-08-08T09:00:58;5.85;;;2.28;;
20945;SDS011;10632;51.276;7.116;2023-08-08T09:03:29;5.15;;;2.20;;
20945;SDS011;10632;51.276;7.116;2023-08-08T09:05:56;5.15;;;2.20;;
20945;SDS011;10632;51.276;7.116;2023-08-08T09:08:26;11.27;;;2.20;;
20945;SDS011;10632;51.276;7.116;2023-08-08T09:10:54;4.68;;;2.00;;
20945;SDS011;10632;51.276;7.116;2023-08-08T09:13:21;7.75;;;2.40;;
20945;SDS011;10632;51.276;7.116;2023-08-08T09:15:51;8.27;;;2.65;;
20945;SDS011;10632;51.276;7.116;2023-08-08T09:18:18;8.65;;;2.15;;
20945;SDS011;10632;51.276;7.116;2023-08-08T09:20:49;4.28;;;1.90;;
20945;SDS011;10632;51.276;7.116;2023-08-08T09:23:16;3.70;;;1.90;;
20945;SDS011;10632;51.276;7.116;2023-08-08T09:25:44;6.07;;;2.35;;
20945;SDS011;10632;51.276;7.116;2023-08-08T09:28:11;10.30;;;2.42;;
20945;SDS011;10632;51.276;7.116;2023-08-08T09:30:38;7.88;;;2.25;;
20945;SDS011;10632;51.276;7.116;2023-08-08T09:33:06;6.07;;;2.30;;
20945;SDS011;10632;51.276;7.116;2023-08-08T09:35:34;5.03;;;1.83;;
20945;SDS011;10632;51.276;7.116;2023-08-08T09:38:03;6.90;;;2.33;;
20945;SDS011;10632;51.276;7.116;2023-08-08T09:40:33;9.70;;;2.45;;
20945;SDS011;10632;51.276;7.116;2023-08-08T09:43:02;8.18;;;2.55;;
20945;SDS011;10632;51.276;7.116;2023-08-08T09:45:35;10.50;;;2.58;;
20945;SDS011;10632;51.276;7.116;2023-08-08T09:48:03;10.00;;;2.50;;
20945;SDS011;10632;51.276;7.116;2023-08-08T09:50:32;4.28;;;2.00;;
20945;SDS011;10632;51.276;7.116;2023-08-08T09:53:00;5.88;;;1.90;;
20945;SDS011;10632;51.276;7.116;2023-08-08T09:55:28;8.27;;;2.60;;
20945;SDS011;10632;51.276;7.116;2023-08-08T09:57:55;6.05;;;2.50;;
20945;SDS011;10632;51.276;7.116;2023-08-08T10:00:26;8.57;;;2.20;;
20945;SDS011;10632;51.276;7.116;2023-08-08T10:02:55;7.63;;;2.63;;
20945;SDS011;10632;51.276;7.116;2023-08-08T10:05:25;6.47;;;2.03;;
20945;SDS011;10632;51.276;7.116;2023-08-08T10:07:53;9.85;;;2.42;;
20945;SDS011;10632;51.276;7.116;2023-08-08T10:10:20;6.22;;;1.67;;
20945;SDS011;10632;51.276;7.116;2023-08-08T10:12:47;16.60;;;2.42;;
20945;SDS011;10632;51.276;7.116;2023-08-08T10:15:15;5.68;;;1.90;;
20945;SDS011;10632;51.276;7.116;2023-08-08T10:17:43;5.32;;;2.08;;
20945;SDS011;10632;51.276;7.116;2023-08-08T10:20:10;5.97;;;2.10;;
20945;SDS011;10632;51.276;7.116;2023-08-08T10:22:38;4.65;;;1.70;;
20945;SDS011;10632;51.276;7.116;2023-08-08T10:25:16;6.85;;;1.80;;
20945;SDS011;10632;51.276;7.116;2023-08-08T10:27:44;6.38;;;1.88;;
20945;SDS011;10632;51.276;7.116;2023-08-08T10:30:11;5.68;;;1.85;;
20945;SDS011;10632;51.276;7.116;2023-08-08T10:32:39;10.10;;;1.90;;
20945;SDS011;10632;51.276;7.116;2023-08-08T10:35:08;8.35;;;2.00;;
20945;SDS011;10632;51.276;7.116;2023-08-08T10:37:36;7.45;;;2.00;;
20945;SDS011;10632;51.276;7.116;2023-08-08T10:40:04;4.47;;;1.70;;
20945;SDS011;10632;51.276;7.116;2023-08-08T10:42:33;10.10;;;1.90;;
20945;SDS011;10632;51.276;7.116;2023-08-08T10:45:09;7.40;;;1.77;;
20945;SDS011;10632;51.276;7.116;2023-08-08T10:47:38;4.28;;;1.50;;
20945;SDS011;10632;51.276;7.116;2023-08-08T10:50:06;10.23;;;2.05;;
20945;SDS011;10632;51.276;7.116;2023-08-08T10:52:49;6.00;;;1.83;;
20945;SDS011;10632;51.276;7.116;2023-08-08T10:55:18;4.32;;;1.70;;
20945;SDS011;10632;51.276;7.116;2023-08-08T10:57:51;3.40;;;1.52;;
20945;SDS011;10632;51.276;7.116;2023-08-08T11:00:21;5.25;;;1.60;;
20945;SDS011;10632;51.276;7.116;2023-08-08T11:02:51;5.57;;;1.98;;
20945;SDS011;10632;51.276;7.116;2023-08-08T11:05:20;10.07;;;2.08;;
20945;SDS011;10632;51.276;7.116;2023-08-08T11:07:48;3.38;;;1.58;;
20945;SDS011;10632;51.276;7.116;2023-08-08T11:10:16;8.55;;;2.38;;
20945;SDS011;10632;51.276;7.116;2023-08-08T11:12:52;4.68;;;2.33;;
20945;SDS011;10632;51.276;7.116;2023-08-08T11:15:23;10.05;;;2.17;;
20945;SDS011;10632;51.276;7.116;2023-08-08T11:17:52;6.40;;;2.38;;
20945;SDS011;10632;51.276;7.116;2023-08-08T11:20:24;4.30;;;1.92;;
20945;SDS011;10632;51.276;7.116;2023-08-08T11:22:55;8.63;;;2.10;;
20945;SDS011;10632;51.276;7.116;2023-08-08T11:25:25;6.65;;;2.15;;
20945;SDS011;10632;51.276;7.116;2023-08-08T11:27:53;4.78;;;1.95;;
20945;SDS011;10632;51.276;7.116;2023-08-08T11:30:21;8.82;;;2.20;;
20945;SDS011;10632;51.276;7.116;2023-08-08T11:32:49;6.50;;;2.17;;
20945;SDS011;10632;51.276;7.116;2023-08-08T11:35:16;7.80;;;2.10;;
20945;SDS011;10632;51.276;7.116;2023-08-08T11:37:45;5.25;;;2.40;;
20945;SDS011;10632;51.276;7.116;2023-08-08T11:40:12;5.43;;;2.50;;
20945;SDS011;10632;51.276;7.116;2023-08-08T11:42:40;8.82;;;2.20;;
20945;SDS011;10632;51.276;7.116;2023-08-08T11:45:09;6.20;;;2.15;;
20945;SDS011;10632;51.276;7.116;2023-08-08T11:47:37;7.28;;;2.17;;
20945;SDS011;10632;51.276;7.116;2023-08-08T11:50:05;5.20;;;2.08;;
20945;SDS011;10632;51.276;7.116;2023-08-08T11:52:34;6.35;;;2.40;;
20945;SDS011;10632;51.276;7.116;2023-08-08T11:55:03;6.38;;;2.15;;
20945;SDS011;10632;51.276;7.116;2023-08-08T11:57:32;4.75;;;1.88;;
20945;SDS011;10632;51.276;7.116;2023-08-08T11:59:59;4.90;;;1.80;;
20945;SDS011;10632;51.276;7.116;2023-08-08T12:02:27;4.93;;;1.90;;
20945;SDS011;10632;51.276;7.116;2023-08-08T12:04:54;6.38;;;1.98;;
20945;SDS011;10632;51.276;7.116;2023-08-08T12:07:22;6.72;;;2.40;;
20945;SDS011;10632;51.276;7.116;2023-08-08T12:09:49;11.15;;;2.80;;
20945;SDS011;10632;51.276;7.116;2023-08-08T12:12:20;7.10;;;2.22;;
20945;SDS011;10632;51.276;7.116;2023-08-08T12:14:47;4.82;;;2.28;;
20945;SDS011;10632;51.276;7.116;2023-08-08T12:17:14;5.22;;;2.03;;
20945;SDS011;10632;51.276;7.116;2023-08-08T12:19:44;6.40;;;2.00;;
20945;SDS011;10632;51.276;7.116;2023-08-08T12:22:12;4.22;;;1.65;;
20945;SDS011;10632;51.276;7.116;2023-08-08T12:24:39;5.22;;;1.80;;
20945;SDS011;10632;51.276;7.116;2023-08-08T12:27:06;4.88;;;1.85;;
20945;SDS011;10632;51.276;7.116;2023-08-08T12:29:35;9.73;;;1.90;;
20945;SDS011;10632;51.276;7.116;2023-08-08T12:32:05;6.35;;;2.03;;
20945;SDS011;10632;51.276;7.116;2023-08-08T12:34:33;8.20;;;1.80;;
20945;SDS011;10632;51.276;7.116;2023-08-08T12:37:02;3.88;;;1.38;;
20945;SDS011;10632;51.276;7.116;2023-08-08T12:39:29;4.05;;;1.50;;
20945;SDS011;10632;51.276;7.116;2023-08-08T12:41:56;4.25;;;1.70;;
20945;SDS011;10632;51.276;7.116;2023-08-08T12:44:23;3.35;;;1.50;;
20945;SDS011;10632;51.276;7.116;2023-08-08T12:46:51;2.63;;;1.42;;
20945;SDS011;10632;51.276;7.116;2023-08-08T12:49:18;3.90;;;1.63;;
20945;SDS011;10632;51.276;7.116;2023-08-08T12:51:45;4.03;;;1.73;;
20945;SDS011;10632;51.276;7.116;2023-08-08T12:54:14;3.88;;;1.52;;
20945;SDS011;10632;51.276;7.116;2023-08-08T12:56:41;6.75;;;1.48;;
20945;SDS011;10632;51.276;7.116;2023-08-08T12:59:08;3.28;;;1.45;;
20945;SDS011;10632;51.276;7.116;2023-08-08T13:01:35;3.75;;;1.10;;
20945;SDS011;10632;51.276;7.116;2023-08-08T13:04:04;7.50;;;1.20;;
20945;SDS011;10632;51.276;7.116;2023-08-08T13:06:31;2.50;;;1.20;;
20945;SDS011;10632;51.276;7.116;2023-08-08T13:08:58;6.47;;;1.40;;
20945;SDS011;10632;51.276;7.116;2023-08-08T13:11:26;6.50;;;1.42;;
20945;SDS011;10632;51.276;7.116;2023-08-08T13:13:53;3.83;;;1.48;;
20945;SDS011;10632;51.276;7.116;2023-08-08T13:16:20;4.50;;;1.50;;
20945;SDS011;10632;51.276;7.116;2023-08-08T13:18:47;6.10;;;1.60;;
20945;SDS011;10632;51.276;7.116;2023-08-08T13:21:16;3.70;;;1.63;;
20945;SDS011;10632;51.276;7.116;2023-08-08T13:23:43;5.45;;;1.70;;
20945;SDS011;10632;51.276;7.116;2023-08-08T13:26:11;5.07;;;1.90;;
20945;SDS011;10632;51.276;7.116;2023-08-08T13:28:38;4.15;;;1.65;;
20945;SDS011;10632;51.276;7.116;2023-08-08T13:31:04;8.07;;;1.80;;
20945;SDS011;10632;51.276;7.116;2023-08-08T13:33:33;10.10;;;2.00;;
20945;SDS011;10632;51.276;7.116;2023-08-08T13:36:00;3.88;;;1.70;;
20945;SDS011;10632;51.276;7.116;2023-08-08T13:38:28;4.97;;;1.95;;
20945;SDS011;10632;51.276;7.116;2023-08-08T13:40:55;6.05;;;1.80;;
20945;SDS011;10632;51.276;7.116;2023-08-08T13:43:22;6.53;;;1.67;;
20945;SDS011;10632;51.276;7.116;2023-08-08T13:45:49;5.18;;;1.20;;
20945;SDS011;10632;51.276;7.116;2023-08-08T13:48:16;4.20;;;1.58;;
20945;SDS011;10632;51.276;7.116;2023-08-08T13:50:43;3.92;;;1.63;;
20945;SDS011;10632;51.276;7.116;2023-08-08T13:53:10;5.85;;;1.90;;
20945;SDS011;10632;51.276;7.116;2023-08-08T13:55:38;7.88;;;1.98;;
20945;SDS011;10632;51.276;7.116;2023-08-08T13:58:06;8.90;;;1.63;;
20945;SDS011;10632;51.276;7.116;2023-08-08T14:00:34;3.92;;;1.60;;
20945;SDS011;10632;51.276;7.116;2023-08-08T14:03:00;3.50;;;1.80;;
20945;SDS011;10632;51.276;7.116;2023-08-08T14:05:27;3.90;;;1.30;;
20945;SDS011;10632;51.276;7.116;2023-08-08T14:07:56;3.50;;;1.80;;
20945;SDS011;10632;51.276;7.116;2023-08-08T14:10:23;8.10;;;2.00;;
20945;SDS011;10632;51.276;7.116;2023-08-08T14:12:51;6.65;;;1.80;;
20945;SDS011;10632;51.276;7.116;2023-08-08T14:15:18;4.35;;;1.90;;
20945;SDS011;10632;51.276;7.116;2023-08-08T14:17:45;5.05;;;1.75;;
20945;SDS011;10632;51.276;7.116;2023-08-08T14:20:12;5.88;;;1.88;;
20945;SDS011;10632;51.276;7.116;2023-08-08T14:22:39;4.70;;;1.70;;
20945;SDS011;10632;51.276;7.116;2023-08-08T14:25:10;6.68;;;1.98;;
20945;SDS011;10632;51.276;7.116;2023-08-08T14:27:37;6.25;;;2.00;;
20945;SDS011;10632;51.276;7.116;2023-08-08T14:30:06;5.55;;;1.80;;
20945;SDS011;10632;51.276;7.116;2023-08-08T14:32:33;4.05;;;1.65;;
20945;SDS011;10632;51.276;7.116;2023-08-08T14:35:00;7.22;;;1.75;;
20945;SDS011;10632;51.276;7.116;2023-08-08T14:37:27;3.03;;;1.55;;
20945;SDS011;10632;51.276;7.116;2023-08-08T14:39:54;3.90;;;1.60;;
20945;SDS011;10632;51.276;7.116;2023-08-08T14:42:21;7.40;;;2.00;;
20945;SDS011;10632;51.276;7.116;2023-08-08T14:44:48;6.13;;;1.75;;
20945;SDS011;10632;51.276;7.116;2023-08-08T14:47:16;4.80;;;1.67;;
20945;SDS011;10632;51.276;7.116;2023-08-08T14:49:43;8.70;;;1.63;;